Time;durP1;ratioP1;P1;durP2;ratioP2;P2;SDS_P1;SDS_P2;PMS_P1;PMS_P2;Temp;Humidity;BMP_temperature;BMP_pressure;BME280_temperature;BME280_humidity;BME280_pressure;Samples;Min_cycle;Max_cycle;Signal;HPM_P1;HPM_P2
2023/12/30 00:00:20;;;;;;;15.30;10.30;;;;;;;4.91;77.82;100707.66;108139;1280;22871;-62
2023/12/30 00:02:49;;;;;;;20.00;12.10;;;;;;;4.94;77.92;100710.66;108168;1276;21992;-59
2023/12/30 00:05:15;;;;;;;17.80;11.40;;;;;;;4.97;78.63;100711.59;108097;1277;21987;-59
2023/12/30 00:07:41;;;;;;;18.40;11.40;;;;;;;5.02;79.00;100717.57;108191;1284;22018;-59
2023/12/30 00:10:07;;;;;;;21.60;12.10;;;;;;;5.07;79.00;100716.77;108339;1282;21987;-59
2023/12/30 00:12:33;;;;;;;18.20;11.70;;;;;;;5.08;78.19;100716.63;107635;1281;1002109;-59
2023/12/30 00:14:59;;;;;;;18.60;12.30;;;;;;;5.07;77.95;100717.48;108266;1284;21986;-59
2023/12/30 00:17:24;;;;;;;20.60;13.80;;;;;;;5.05;77.60;100720.59;108175;1283;21989;-59
2023/12/30 00:19:50;;;;;;;42.80;22.90;;;;;;;5.03;77.72;100726.63;108121;1275;21993;-61
2023/12/30 00:22:16;;;;;;;46.50;23.00;;;;;;;5.02;77.64;100724.54;108149;1285;22326;-59
2023/12/30 00:24:42;;;;;;;45.90;22.70;;;;;;;5.03;78.02;100724.38;108089;1283;21991;-62
2023/12/30 00:27:07;;;;;;;53.20;28.90;;;;;;;5.05;77.92;100720.58;109482;1284;21993;-59
2023/12/30 00:29:37;;;;;;;47.90;25.90;;;;;;;5.06;78.06;100719.22;108151;1281;21990;-61
2023/12/30 00:32:04;;;;;;;36.50;20.40;;;;;;;5.08;78.15;100721.14;108168;1284;21987;-62
2023/12/30 00:34:33;;;;;;;27.00;15.40;;;;;;;5.10;78.26;100723.08;108211;1285;22132;-62
2023/12/30 00:36:59;;;;;;;22.60;13.30;;;;;;;5.12;78.01;100723.11;108235;1274;21989;-60
2023/12/30 00:39:24;;;;;;;20.80;12.10;;;;;;;5.10;77.70;100720.83;108360;1285;21983;-62
2023/12/30 00:41:50;;;;;;;20.50;12.80;;;;;;;5.09;77.92;100719.76;108224;1285;21992;-59
2023/12/30 00:44:15;;;;;;;19.30;12.10;;;;;;;5.10;77.87;100717.33;108124;1284;21993;-59
2023/12/30 00:46:41;;;;;;;19.70;12.40;;;;;;;5.12;78.14;100712.48;108099;1280;23064;-62
2023/12/30 00:49:08;;;;;;;21.20;12.60;;;;;;;5.12;77.78;100709.38;107389;1281;1003422;-59
2023/12/30 00:51:35;;;;;;;17.00;11.50;;;;;;;5.10;77.71;100707.08;108152;1274;22027;-59
2023/12/30 00:54:01;;;;;;;17.90;11.50;;;;;;;5.09;77.74;100710.38;108151;1274;21986;-58
2023/12/30 00:56:27;;;;;;;18.00;11.90;;;;;;;5.09;77.59;100706.02;108125;1284;21992;-61
2023/12/30 00:58:52;;;;;;;19.30;11.70;;;;;;;5.08;77.42;100710.54;108208;1277;21998;-58
2023/12/30 01:01:18;;;;;;;18.50;11.20;;;;;;;5.09;77.61;100703.23;108135;1285;22022;-61
2023/12/30 01:03:43;;;;;;;17.70;11.00;;;;;;;5.10;77.93;100701.69;108132;1280;21984;-61
2023/12/30 01:06:09;;;;;;;23.40;11.90;;;;;;;5.12;77.83;100705.37;108216;1274;22495;-61
2023/12/30 01:08:34;;;;;;;17.50;11.90;;;;;;;5.14;77.88;100710.45;108347;1283;23070;-61
2023/12/30 01:11:00;;;;;;;24.00;12.60;;;;;;;5.15;77.99;100709.24;108369;1283;21986;-59
2023/12/30 01:13:25;;;;;;;21.20;13.20;;;;;;;5.15;77.61;100705.23;108440;1283;21989;-59
2023/12/30 01:15:51;;;;;;;19.70;12.40;;;;;;;5.14;77.62;100701.41;107431;1284;1002429;-61
2023/12/30 01:18:16;;;;;;;23.40;14.20;;;;;;;5.14;77.88;100698.80;107484;1285;1002514;-61
2023/12/30 01:20:42;;;;;;;23.60;13.40;;;;;;;5.16;78.03;100699.35;108099;1283;21990;-62
2023/12/30 01:23:08;;;;;;;22.50;13.90;;;;;;;5.18;78.05;100692.77;108137;1285;22041;-59
2023/12/30 01:25:33;;;;;;;22.90;13.30;;;;;;;5.18;78.15;100687.90;108108;1278;22098;-61
2023/12/30 01:27:59;;;;;;;23.70;13.90;;;;;;;5.17;77.94;100688.59;108141;1285;21989;-59
2023/12/30 01:30:25;;;;;;;23.00;13.00;;;;;;;5.17;77.82;100686.67;108301;1283;21995;-61
2023/12/30 01:32:50;;;;;;;20.40;12.80;;;;;;;5.18;77.70;100685.98;108132;1285;21956;-61
2023/12/30 01:35:16;;;;;;;24.10;14.10;;;;;;;5.20;78.19;100684.80;108187;1284;22024;-59
2023/12/30 01:37:41;;;;;;;21.70;13.70;;;;;;;5.23;78.34;100683.61;108146;1277;22010;-62
2023/12/30 01:40:07;;;;;;;20.10;12.50;;;;;;;5.25;78.52;100679.30;108312;1280;21975;-59
2023/12/30 01:42:33;;;;;;;21.70;13.10;;;;;;;5.27;78.43;100674.98;107667;1274;1002848;-60
2023/12/30 01:44:58;;;;;;;20.30;11.80;;;;;;;5.26;78.56;100678.45;108387;1280;23788;-58
2023/12/30 01:47:24;;;;;;;21.20;12.50;;;;;;;5.26;78.72;100682.44;108332;1283;21988;-59
2023/12/30 01:49:50;;;;;;;22.00;13.00;;;;;;;5.27;78.61;100685.08;108355;1283;21989;-62
2023/12/30 01:52:16;;;;;;;22.00;13.00;;;;;;;5.30;78.99;100689.12;108414;1275;21990;-58
2023/12/30 01:54:41;;;;;;;20.60;13.40;;;;;;;5.31;78.89;100688.78;108382;1280;23802;-62
2023/12/30 01:57:07;;;;;;;20.50;12.40;;;;;;;5.34;78.63;100686.36;108188;1283;21991;-59
2023/12/30 01:59:32;;;;;;;19.80;12.90;;;;;;;5.35;78.66;100679.27;108096;1283;22023;-62
2023/12/30 02:01:58;;;;;;;22.10;12.70;;;;;;;5.36;78.52;100676.32;108218;1283;21990;-62
2023/12/30 02:04:24;;;;;;;19.50;12.20;;;;;;;5.35;78.28;100676.65;108146;1284;21992;-58
2023/12/30 02:06:52;;;;;;;21.90;12.60;;;;;;;5.35;77.92;100675.42;108149;1284;21984;-59
2023/12/30 02:09:18;;;;;;;18.50;12.30;;;;;;;5.33;77.88;100675.23;108275;1283;21983;-59
2023/12/30 02:11:43;;;;;;;23.80;13.30;;;;;;;5.32;77.97;100675.91;108235;1283;21984;-59
2023/12/30 02:14:23;;;;;;;23.30;14.30;;;;;;;5.30;77.98;100677.46;108296;1283;21993;-62
2023/12/30 02:16:48;;;;;;;19.00;12.50;;;;;;;5.29;78.29;100680.40;108147;1285;21990;-62
2023/12/30 02:19:14;;;;;;;21.50;12.90;;;;;;;5.29;78.05;100687.02;108131;1285;21987;-59
2023/12/30 02:21:39;;;;;;;22.30;13.90;;;;;;;5.27;77.85;100683.67;108111;1285;21991;-60
2023/12/30 02:24:05;;;;;;;22.00;12.80;;;;;;;5.26;77.70;100676.53;108314;1280;22022;-63
2023/12/30 02:26:31;;;;;;;24.60;14.70;;;;;;;5.25;77.70;100671.29;108367;1283;22038;-60
2023/12/30 02:28:56;;;;;;;22.90;14.70;;;;;;;5.24;77.90;100674.77;108393;1279;22196;-62
2023/12/30 02:31:22;;;;;;;20.80;13.60;;;;;;;5.23;77.84;100676.48;108385;1273;21990;-63
2023/12/30 02:33:47;;;;;;;21.20;12.90;;;;;;;5.24;78.12;100678.76;108359;1278;21980;-59
2023/12/30 02:36:13;;;;;;;21.90;13.40;;;;;;;5.24;77.83;100682.77;108352;1272;21991;-60
2023/12/30 02:38:38;;;;;;;20.60;13.20;;;;;;;5.23;77.79;100682.92;108439;1279;21991;-59
2023/12/30 02:41:04;;;;;;;19.80;12.60;;;;;;;5.21;77.59;100685.50;108433;1283;21982;-63
2023/12/30 02:43:29;;;;;;;20.40;12.30;;;;;;;5.18;77.24;100683.02;108415;1283;21983;-60
2023/12/30 02:45:55;;;;;;;24.90;14.00;;;;;;;5.13;76.54;100680.16;108171;1283;21988;-62
2023/12/30 02:48:20;;;;;;;19.30;12.70;;;;;;;5.07;76.38;100677.83;108382;1283;22021;-59
2023/12/30 02:50:46;;;;;;;23.40;14.10;;;;;;;5.04;76.34;100673.09;108418;1275;21982;-62
2023/12/30 02:53:12;;;;;;;20.90;13.90;;;;;;;5.02;76.43;100666.27;108387;1273;21984;-62
2023/12/30 02:55:37;;;;;;;24.80;13.90;;;;;;;4.98;76.39;100663.94;108409;1283;22033;-62
2023/12/30 02:58:03;;;;;;;19.40;13.20;;;;;;;4.91;76.37;100657.92;108411;1281;21990;-60
2023/12/30 03:00:28;;;;;;;24.00;13.80;;;;;;;4.89;76.77;100662.23;108366;1283;21994;-62
2023/12/30 03:02:54;;;;;;;21.70;13.50;;;;;;;4.89;76.97;100668.85;108381;1283;21994;-59
2023/12/30 03:05:19;;;;;;;19.90;13.20;;;;;;;4.89;77.02;100668.66;108385;1274;21990;-62
2023/12/30 03:07:45;;;;;;;23.50;13.70;;;;;;;4.89;77.04;100680.33;108380;1276;21986;-62
2023/12/30 03:10:11;;;;;;;18.60;12.40;;;;;;;4.90;76.89;100681.20;108332;1283;21992;-63
2023/12/30 03:12:37;;;;;;;23.60;14.10;;;;;;;4.88;76.93;100686.91;108468;1283;22002;-62
2023/12/30 03:15:02;;;;;;;21.80;14.30;;;;;;;4.87;76.83;100689.49;108384;1275;23738;-62
2023/12/30 03:17:28;;;;;;;22.70;13.50;;;;;;;4.86;77.22;100692.61;108407;1283;22005;-60
2023/12/30 03:19:54;;;;;;;23.50;14.50;;;;;;;4.84;77.21;100691.92;108408;1283;21995;-62
2023/12/30 03:22:19;;;;;;;22.30;15.00;;;;;;;4.85;77.54;100690.70;108406;1283;22038;-59
2023/12/30 03:24:45;;;;;;;22.80;13.90;;;;;;;4.87;77.67;100691.76;108357;1273;22758;-62
2023/12/30 03:27:10;;;;;;;23.30;13.80;;;;;;;4.89;77.78;100693.00;108400;1283;21983;-62
2023/12/30 03:29:36;;;;;;;19.50;12.60;;;;;;;4.90;77.61;100691.13;108408;1274;22037;-62
2023/12/30 03:32:02;;;;;;;20.70;12.60;;;;;;;4.91;77.31;100699.14;108357;1283;22019;-61
2023/12/30 03:34:27;;;;;;;21.00;13.40;;;;;;;4.92;77.43;100703.15;108403;1283;21954;-62
2023/12/30 03:36:53;;;;;;;21.00;13.00;;;;;;;4.92;77.13;100699.32;108357;1275;21992;-59
2023/12/30 03:39:19;;;;;;;21.80;13.00;;;;;;;4.90;76.93;100694.61;108374;1283;21978;-60
2023/12/30 03:41:44;;;;;;;19.50;13.00;;;;;;;4.86;76.85;100691.76;108388;1283;22002;-60
2023/12/30 03:44:10;;;;;;;17.90;12.30;;;;;;;4.80;76.76;100689.41;108394;1274;21986;-61
2023/12/30 03:46:35;;;;;;;20.20;12.70;;;;;;;4.76;76.66;100691.77;108361;1283;22015;-61
2023/12/30 03:49:01;;;;;;;20.00;12.00;;;;;;;4.75;76.69;100692.98;108408;1281;22491;-59
2023/12/30 03:51:26;;;;;;;21.00;12.90;;;;;;;4.74;76.60;100693.30;108339;1278;21995;-59
2023/12/30 03:53:52;;;;;;;20.50;12.90;;;;;;;4.75;76.77;100703.39;108057;1285;21996;-59
2023/12/30 03:56:17;;;;;;;20.00;12.00;;;;;;;4.72;76.62;100703.52;108068;1280;22005;-62
2023/12/30 03:58:43;;;;;;;18.60;12.10;;;;;;;4.68;76.09;100699.63;108076;1277;23854;-59
2023/12/30 04:01:10;;;;;;;17.20;11.90;;;;;;;4.65;75.94;100704.09;108061;1280;21987;-62
2023/12/30 04:03:35;;;;;;;24.30;12.10;;;;;;;4.63;76.56;100707.04;108163;1277;22030;-59
2023/12/30 04:06:01;;;;;;;32.90;14.60;;;;;;;4.70;77.88;100701.05;108087;1280;22463;-59
2023/12/30 04:08:26;;;;;;;24.90;13.80;;;;;;;4.79;78.48;100698.77;108097;1284;21991;-59
2023/12/30 04:10:52;;;;;;;21.90;13.60;;;;;;;4.86;78.15;100695.05;108091;1285;21982;-62
2023/12/30 04:13:18;;;;;;;20.80;13.60;;;;;;;4.83;76.92;100692.77;107592;1285;1002866;-62
2023/12/30 04:15:43;;;;;;;20.90;13.40;;;;;;;4.77;76.50;100692.67;108045;1284;21987;-61
2023/12/30 04:18:09;;;;;;;22.30;12.10;;;;;;;4.73;76.37;100693.80;108122;1272;22471;-59
2023/12/30 04:20:34;;;;;;;21.10;11.80;;;;;;;4.70;76.81;100698.45;108101;1280;21959;-60
2023/12/30 04:23:00;;;;;;;21.90;12.70;;;;;;;4.69;76.95;100694.78;108095;1284;21994;-60
2023/12/30 04:25:26;;;;;;;20.40;11.80;;;;;;;4.67;76.78;100693.87;108126;1284;22001;-61
2023/12/30 04:27:51;;;;;;;22.60;12.60;;;;;;;4.60;77.06;100694.11;108094;1275;22012;-61
2023/12/30 04:30:17;;;;;;;22.70;12.10;;;;;;;4.54;77.15;100696.61;108183;1277;21990;-61
2023/12/30 04:32:42;;;;;;;25.70;14.10;;;;;;;4.54;77.23;100693.48;108162;1285;22028;-61
2023/12/30 04:35:08;;;;;;;29.70;14.90;;;;;;;4.56;77.59;100693.69;107341;1280;1002242;-59
2023/12/30 04:37:33;;;;;;;23.70;13.50;;;;;;;4.59;77.66;100697.23;107430;1284;1002600;-58
2023/12/30 04:39:59;;;;;;;21.80;12.70;;;;;;;4.66;77.94;100700.98;108138;1276;22049;-58
2023/12/30 04:42:24;;;;;;;24.30;12.70;;;;;;;4.73;78.15;100704.05;108172;1285;25335;-61
2023/12/30 04:44:50;;;;;;;20.70;13.20;;;;;;;4.79;77.99;100705.19;108030;1274;22021;-58
2023/12/30 04:47:15;;;;;;;18.50;12.40;;;;;;;4.83;77.66;100708.40;108060;1285;22029;-61
2023/12/30 04:49:41;;;;;;;30.70;14.90;;;;;;;4.84;77.49;100711.02;108040;1274;21994;-60
2023/12/30 04:52:06;;;;;;;39.50;20.90;;;;;;;4.87;77.37;100706.89;108327;1282;23394;-62
2023/12/30 04:54:32;;;;;;;25.40;15.00;;;;;;;4.86;76.97;100702.88;108215;1280;21992;-58
2023/12/30 04:56:58;;;;;;;21.80;13.60;;;;;;;4.81;76.00;100701.76;108065;1284;21994;-61
2023/12/30 04:59:24;;;;;;;21.60;13.50;;;;;;;4.74;75.84;100708.41;108097;1279;22141;-60
2023/12/30 05:01:49;;;;;;;24.40;13.90;;;;;;;4.69;76.06;100712.86;108088;1284;21991;-59
2023/12/30 05:04:15;;;;;;;18.80;12.60;;;;;;;4.76;77.26;100711.95;108078;1279;22028;-59
2023/12/30 05:06:40;;;;;;;19.10;12.50;;;;;;;4.80;77.04;100712.52;108063;1283;21997;-61
2023/12/30 05:09:06;;;;;;;19.20;12.60;;;;;;;4.69;75.55;100712.69;108081;1280;22005;-62
2023/12/30 05:11:31;;;;;;;21.80;14.20;;;;;;;4.52;74.85;100716.56;108139;1284;22458;-60
2023/12/30 05:13:57;;;;;;;19.80;13.10;;;;;;;4.38;74.51;100721.00;108208;1283;22032;-57
2023/12/30 05:16:23;;;;;;;19.10;12.40;;;;;;;4.31;75.23;100724.52;108128;1284;22027;-62
2023/12/30 05:18:50;;;;;;;17.60;12.60;;;;;;;4.30;76.02;100729.90;108076;1276;22054;-62
2023/12/30 05:21:16;;;;;;;20.30;11.50;;;;;;;4.33;76.39;100733.08;108053;1279;21991;-61
2023/12/30 05:23:42;;;;;;;18.70;11.50;;;;;;;4.37;76.70;100732.45;108075;1277;22099;-59
2023/12/30 05:26:08;;;;;;;20.30;12.80;;;;;;;4.39;76.48;100733.55;108075;1284;22028;-59
2023/12/30 05:28:34;;;;;;;20.30;12.10;;;;;;;4.41;76.53;100738.79;108145;1284;23766;-61
2023/12/30 05:30:59;;;;;;;17.00;11.30;;;;;;;4.39;76.42;100741.00;108156;1285;21997;-58
2023/12/30 05:33:26;;;;;;;21.10;12.30;;;;;;;4.39;76.69;100742.73;108081;1285;22024;-59
2023/12/30 05:35:52;;;;;;;18.50;11.90;;;;;;;4.40;76.71;100743.98;108085;1284;22004;-60
2023/12/30 05:38:18;;;;;;;21.60;13.00;;;;;;;4.41;76.68;100750.78;108104;1284;21993;-61
2023/12/30 05:40:43;;;;;;;17.00;12.30;;;;;;;4.38;76.14;100757.84;108084;1284;22009;-59
2023/12/30 05:43:09;;;;;;;18.20;12.60;;;;;;;4.35;76.02;100752.74;108238;1277;22038;-59
2023/12/30 05:45:35;;;;;;;17.30;12.20;;;;;;;4.34;75.69;100750.64;108250;1284;22031;-58
2023/12/30 05:48:02;;;;;;;20.00;12.10;;;;;;;4.27;75.12;100752.77;108119;1284;22114;-60
2023/12/30 05:50:28;;;;;;;18.80;12.20;;;;;;;4.17;74.78;100759.34;108100;1284;21987;-59
2023/12/30 05:52:55;;;;;;;18.40;11.70;;;;;;;4.11;74.40;100763.55;108232;1284;22036;-58
2023/12/30 05:55:21;;;;;;;17.20;11.40;;;;;;;4.08;74.79;100767.33;108081;1284;21989;-61
2023/12/30 05:57:46;;;;;;;16.80;10.90;;;;;;;4.10;75.16;100766.31;108123;1284;22037;-58
2023/12/30 06:00:14;;;;;;;20.60;13.10;;;;;;;4.13;75.48;100769.51;108219;1285;22021;-59
2023/12/30 06:02:40;;;;;;;19.50;12.40;;;;;;;4.16;75.80;100772.17;107427;1274;1002964;-61
2023/12/30 06:05:06;;;;;;;23.20;12.90;;;;;;;4.20;76.39;100772.59;108364;1278;22020;-61
2023/12/30 06:07:32;;;;;;;20.10;12.30;;;;;;;4.23;76.57;100770.41;108374;1274;21993;-58
2023/12/30 06:09:57;;;;;;;21.30;13.00;;;;;;;4.27;76.92;100765.27;108152;1284;21982;-57
2023/12/30 06:12:23;;;;;;;23.50;12.90;;;;;;;4.35;77.09;100758.82;108070;1283;21993;-58
2023/12/30 06:14:49;;;;;;;22.40;12.40;;;;;;;4.41;77.21;100762.77;108064;1277;22027;-61
2023/12/30 06:17:14;;;;;;;20.50;13.00;;;;;;;4.49;77.70;100767.27;108094;1284;23519;-61
2023/12/30 06:19:40;;;;;;;25.30;14.00;;;;;;;4.56;78.26;100770.35;108037;1280;22000;-61
2023/12/30 06:22:06;;;;;;;25.80;14.70;;;;;;;4.62;78.77;100773.92;108090;1284;21996;-62
2023/12/30 06:24:33;;;;;;;23.50;13.90;;;;;;;4.69;78.92;100772.48;108215;1273;21991;-59
2023/12/30 06:26:58;;;;;;;23.20;14.20;;;;;;;4.77;78.73;100772.80;108165;1280;22046;-60
2023/12/30 06:29:26;;;;;;;22.10;14.90;;;;;;;4.86;79.33;100771.38;108154;1275;21989;-58
2023/12/30 06:31:53;;;;;;;22.00;14.40;;;;;;;4.94;79.55;100767.70;108151;1276;22025;-61
2023/12/30 06:34:19;;;;;;;20.80;13.50;;;;;;;5.03;80.16;100767.34;108263;1285;21984;-59
2023/12/30 06:36:45;;;;;;;26.10;16.20;;;;;;;5.13;81.18;100772.02;108109;1284;22002;-59
2023/12/30 06:39:13;;;;;;;28.00;15.40;;;;;;;5.24;81.06;100772.73;108159;1284;21987;-59
2023/12/30 06:41:42;;;;;;;36.20;19.70;;;;;;;5.35;81.46;100773.94;108074;1284;21995;-61
2023/12/30 06:44:08;;;;;;;36.00;21.40;;;;;;;5.46;81.70;100779.31;108205;1276;22040;-59
2023/12/30 06:46:34;;;;;;;37.40;22.70;;;;;;;5.58;82.03;100782.10;108075;1280;22030;-59
2023/12/30 06:49:00;;;;;;;28.70;19.30;;;;;;;5.69;82.08;100781.56;108243;1284;21993;-59
2023/12/30 06:51:27;;;;;;;26.30;17.70;;;;;;;5.79;81.77;100778.74;107466;1274;1003147;-59
2023/12/30 06:53:55;;;;;;;26.60;17.30;;;;;;;5.88;81.78;100773.46;108183;1277;21993;-63
2023/12/30 06:56:21;;;;;;;29.10;16.80;;;;;;;5.96;82.51;100770.77;108086;1277;21989;-59
2023/12/30 06:58:47;;;;;;;25.10;16.30;;;;;;;6.02;82.73;100771.41;108152;1274;21998;-60
2023/12/30 07:01:13;;;;;;;27.10;17.80;;;;;;;6.10;82.67;100772.73;108127;1284;22463;-62
2023/12/30 07:03:39;;;;;;;28.00;18.20;;;;;;;6.17;82.48;100773.52;108142;1282;21984;-61
2023/12/30 07:06:05;;;;;;;29.80;19.60;;;;;;;6.22;82.40;100774.27;108164;1284;21983;-59
2023/12/30 07:08:31;;;;;;;27.70;17.50;;;;;;;6.30;82.59;100774.36;108147;1284;21988;-61
2023/12/30 07:10:56;;;;;;;33.80;20.30;;;;;;;6.37;82.83;100771.48;108104;1284;21997;-60
2023/12/30 07:13:22;;;;;;;50.80;26.10;;;;;;;6.46;82.96;100773.84;108110;1280;21996;-63
2023/12/30 07:15:48;;;;;;;54.30;29.50;;;;;;;6.55;83.37;100775.52;108123;1284;21987;-60
2023/12/30 07:18:13;;;;;;;36.00;21.70;;;;;;;6.64;83.37;100775.27;108267;1277;21998;-60
2023/12/30 07:20:39;;;;;;;27.50;17.80;;;;;;;6.74;83.63;100775.35;108084;1277;21995;-63
2023/12/30 07:23:05;;;;;;;29.10;17.40;;;;;;;6.86;83.98;100781.04;108132;1284;22025;-60
2023/12/30 07:25:31;;;;;;;32.40;19.50;;;;;;;6.94;84.05;100779.38;108117;1276;21995;-60
2023/12/30 07:27:57;;;;;;;29.20;18.30;;;;;;;7.03;84.38;100779.98;107366;1284;1002565;-62
2023/12/30 07:30:22;;;;;;;28.70;18.80;;;;;;;7.13;84.88;100783.73;107400;1279;1002276;-60
2023/12/30 07:32:48;;;;;;;32.20;19.70;;;;;;;7.22;84.76;100780.84;108174;1284;21990;-58
2023/12/30 07:35:14;;;;;;;46.10;26.80;;;;;;;7.30;84.81;100778.79;108100;1273;21987;-63
2023/12/30 07:37:39;;;;;;;60.30;29.30;;;;;;;7.42;85.23;100775.05;108136;1284;22006;-62
2023/12/30 07:40:06;;;;;;;42.80;23.70;;;;;;;7.55;86.12;100774.96;108085;1284;22013;-63
2023/12/30 07:42:32;;;;;;;30.40;20.40;;;;;;;7.69;86.51;100780.46;108102;1284;21998;-63
2023/12/30 07:44:58;;;;;;;34.20;23.40;;;;;;;7.82;86.54;100785.60;108123;1284;21989;-61
2023/12/30 07:47:25;;;;;;;40.30;23.90;;;;;;;7.95;86.66;100787.23;108133;1280;22027;-62
2023/12/30 07:49:51;;;;;;;34.20;20.80;;;;;;;8.06;86.68;100790.95;108226;1274;21995;-62
2023/12/30 07:52:16;;;;;;;33.60;22.10;;;;;;;8.16;86.97;100792.40;108139;1274;21976;-61
2023/12/30 07:54:42;;;;;;;33.60;21.10;;;;;;;8.30;88.00;100790.19;108115;1284;22028;-60
2023/12/30 07:57:07;;;;;;;32.30;20.90;;;;;;;8.43;87.65;100786.91;108121;1284;22027;-61
2023/12/30 07:59:33;;;;;;;31.30;20.00;;;;;;;8.53;87.69;100786.80;108141;1284;22002;-60
2023/12/30 08:01:59;;;;;;;29.60;18.40;;;;;;;8.65;87.79;100783.85;108112;1284;22013;-62
2023/12/30 08:04:24;;;;;;;25.00;17.60;;;;;;;8.76;87.35;100788.77;108148;1284;22122;-61
2023/12/30 08:06:50;;;;;;;28.70;19.00;;;;;;;8.84;87.21;100788.08;108270;1284;21991;-62
2023/12/30 08:09:18;;;;;;;27.50;19.20;;;;;;;8.91;87.08;100788.62;108163;1284;21993;-61
2023/12/30 08:11:44;;;;;;;27.90;18.70;;;;;;;9.02;87.92;100787.40;108195;1273;21997;-60
2023/12/30 08:14:10;;;;;;;27.60;18.80;;;;;;;9.13;87.75;100786.17;108182;1276;21987;-63
2023/12/30 08:16:35;;;;;;;27.40;19.00;;;;;;;9.23;87.69;100783.39;108143;1284;21989;-60
2023/12/30 08:19:04;;;;;;;28.00;18.00;;;;;;;9.35;88.23;100783.20;108160;1277;21987;-62
2023/12/30 08:21:30;;;;;;;28.40;18.80;;;;;;;9.56;89.64;100777.05;108122;1280;22004;-61
2023/12/30 08:23:57;;;;;;;26.20;17.90;;;;;;;9.80;90.72;100774.00;108179;1283;21986;-63
2023/12/30 08:26:24;;;;;;;29.40;19.00;;;;;;;10.00;90.69;100772.89;108104;1284;23063;-61
2023/12/30 08:28:50;;;;;;;26.20;19.30;;;;;;;10.16;90.24;100768.27;108142;1280;23728;-61
2023/12/30 08:31:16;;;;;;;29.00;19.20;;;;;;;10.30;89.86;100767.33;108092;1284;21989;-61
2023/12/30 08:33:42;;;;;;;36.70;26.00;;;;;;;10.43;89.47;100764.65;108095;1281;21990;-63
2023/12/30 08:36:07;;;;;;;36.60;21.80;;;;;;;10.50;89.91;100761.11;108105;1285;22006;-61
2023/12/30 08:38:33;;;;;;;27.90;19.80;;;;;;;10.61;90.71;100758.23;108023;1284;150212;-60
2023/12/30 08:40:59;;;;;;;31.70;20.90;;;;;;;10.78;91.68;100755.66;108131;1285;22045;-64
2023/12/30 08:43:24;;;;;;;31.00;20.60;;;;;;;10.91;90.60;100757.52;108286;1284;22003;-63
2023/12/30 08:45:50;;;;;;;30.60;21.00;;;;;;;11.01;90.55;100752.35;108113;1280;21982;-63
2023/12/30 08:48:16;;;;;;;30.40;19.20;;;;;;;11.09;89.45;100748.40;108146;1277;21997;-64
2023/12/30 08:50:44;;;;;;;31.80;20.80;;;;;;;11.12;88.55;100746.10;108158;1283;23049;-62
2023/12/30 08:53:11;;;;;;;31.30;20.90;;;;;;;11.15;88.18;100742.73;108301;1283;22006;-61
2023/12/30 08:55:36;;;;;;;30.80;20.50;;;;;;;11.22;89.04;100735.30;108387;1283;21992;-61
2023/12/30 08:58:02;;;;;;;28.50;19.00;;;;;;;11.33;89.26;100732.02;108335;1274;21984;-64
2023/12/30 09:00:28;;;;;;;31.10;19.60;;;;;;;11.43;88.60;100730.52;108106;1284;21983;-63
2023/12/30 09:02:55;;;;;;;31.60;21.80;;;;;;;11.52;88.30;100725.69;108130;1274;21994;-61
2023/12/30 09:05:21;;;;;;;29.50;21.10;;;;;;;11.61;88.53;100719.27;108109;1272;22001;-63
2023/12/30 09:07:48;;;;;;;31.00;21.50;;;;;;;11.68;88.27;100714.27;108123;1284;22019;-64
2023/12/30 09:10:16;;;;;;;32.70;22.20;;;;;;;11.72;88.12;100710.86;108160;1284;22022;-61
2023/12/30 09:12:41;;;;;;;30.70;21.60;;;;;;;11.79;88.52;100711.32;108120;1272;22052;-61
2023/12/30 09:15:08;;;;;;;31.20;19.70;;;;;;;11.85;88.87;100711.42;108144;1284;23422;-61
2023/12/30 09:17:33;;;;;;;30.00;21.20;;;;;;;11.92;88.97;100707.66;108103;1284;21994;-64
2023/12/30 09:19:59;;;;;;;30.20;20.80;;;;;;;11.98;88.78;100701.08;108204;1284;22001;-62
2023/12/30 09:22:24;;;;;;;34.10;21.80;;;;;;;12.05;88.53;100696.09;108158;1283;22009;-62
2023/12/30 09:24:50;;;;;;;36.70;22.30;;;;;;;12.12;88.06;100696.18;108140;1280;21986;-61
2023/12/30 09:27:16;;;;;;;34.80;22.70;;;;;;;12.20;88.79;100698.35;108115;1284;21987;-61
2023/12/30 09:29:42;;;;;;;33.00;22.70;;;;;;;12.31;89.30;100698.19;108189;1283;22024;-64
2023/12/30 09:32:08;;;;;;;32.50;22.40;;;;;;;12.44;89.50;100695.38;108126;1280;21990;-61
2023/12/30 09:34:33;;;;;;;28.10;20.60;;;;;;;12.57;89.64;100692.02;108115;1280;21994;-61
2023/12/30 09:36:59;;;;;;;31.30;21.20;;;;;;;12.71;89.48;100689.14;108130;1284;21990;-61
2023/12/30 09:39:26;;;;;;;31.70;21.10;;;;;;;12.83;88.73;100678.72;108172;1284;22023;-61
2023/12/30 09:41:52;;;;;;;32.30;22.40;;;;;;;12.94;88.33;100669.20;108134;1284;22007;-61
2023/12/30 09:44:17;;;;;;;36.40;24.60;;;;;;;13.05;87.79;100666.91;108125;1284;21993;-61
2023/12/30 09:46:43;;;;;;;35.80;25.50;;;;;;;13.16;87.80;100661.79;108170;1284;22003;-63
2023/12/30 09:49:08;;;;;;;32.30;22.00;;;;;;;13.22;87.32;100654.98;108237;1280;23637;-60
2023/12/30 09:51:34;;;;;;;33.60;21.70;;;;;;;13.30;87.28;100645.66;108122;1283;22106;-62
2023/12/30 09:54:00;;;;;;;34.20;23.90;;;;;;;13.43;87.92;100643.48;108145;1284;21986;-63
2023/12/30 09:56:25;;;;;;;35.70;25.20;;;;;;;13.56;87.78;100639.88;108126;1277;22110;-60
2023/12/30 09:58:53;;;;;;;33.00;24.90;;;;;;;13.66;87.16;100635.45;108142;1284;21990;-62
2023/12/30 10:01:18;;;;;;;31.30;22.10;;;;;;;13.75;86.81;100631.54;108161;1276;21986;-60
2023/12/30 10:03:44;;;;;;;33.60;23.00;;;;;;;13.79;86.15;100627.23;108122;1285;21987;-62
2023/12/30 10:06:11;;;;;;;28.10;21.10;;;;;;;13.83;85.51;100626.79;108121;1284;21989;-61
2023/12/30 10:08:37;;;;;;;32.00;22.20;;;;;;;13.88;85.42;100627.22;108161;1284;21987;-61
2023/12/30 10:11:08;;;;;;;31.00;21.10;;;;;;;13.92;84.54;100625.52;108140;1284;21990;-60
2023/12/30 10:13:36;;;;;;;31.20;21.80;;;;;;;13.95;83.80;100620.88;108196;1284;21999;-63
2023/12/30 10:16:04;;;;;;;32.50;22.90;;;;;;;13.99;84.56;100614.80;108166;1284;22066;-60
2023/12/30 10:18:37;;;;;;;31.20;24.10;;;;;;;14.04;84.66;100616.80;108166;1284;22068;-60
2023/12/30 10:21:05;;;;;;;42.00;28.20;;;;;;;14.08;84.21;100612.66;108139;1284;21998;-62
2023/12/30 10:23:32;;;;;;;43.20;26.00;;;;;;;14.14;84.81;100609.52;107373;1273;1003269;-60
2023/12/30 10:25:58;;;;;;;33.50;23.30;;;;;;;14.20;83.50;100604.97;108158;1271;22004;-60
2023/12/30 10:28:24;;;;;;;31.60;22.60;;;;;;;14.25;83.45;100600.43;108116;1277;21992;-62
2023/12/30 10:31:01;;;;;;;33.50;22.40;;;;;;;14.32;83.14;100594.44;108165;1280;22003;-60
2023/12/30 10:33:26;;;;;;;34.20;23.40;;;;;;;14.44;84.00;100592.90;108100;1282;22025;-62
2023/12/30 10:35:52;;;;;;;32.60;22.80;;;;;;;14.56;83.26;100587.50;108127;1274;21985;-61
2023/12/30 10:38:17;;;;;;;43.60;30.00;;;;;;;14.66;83.58;100582.13;108137;1277;23039;-62
2023/12/30 10:40:44;;;;;;;37.20;27.70;;;;;;;14.77;83.38;100579.92;108211;1284;21999;-63
2023/12/30 10:43:10;;;;;;;52.70;35.20;;;;;;;14.87;83.48;100572.40;108131;1284;21989;-62
2023/12/30 10:45:35;;;;;;;31.10;21.80;;;;;;;15.00;83.56;100566.77;108132;1283;22046;-60
2023/12/30 10:48:01;;;;;;;35.10;26.50;;;;;;;15.09;80.78;100567.23;108147;1284;21989;-60
2023/12/30 10:50:27;;;;;;;29.10;21.90;;;;;;;15.15;80.77;100561.23;108144;1278;21983;-61
2023/12/30 10:53:05;;;;;;;31.50;20.80;;;;;;;15.26;82.29;100557.55;108194;1284;22006;-63
2023/12/30 10:55:32;;;;;;;32.90;21.70;;;;;;;15.34;80.80;100555.91;108223;1284;22457;-62
2023/12/30 10:58:03;;;;;;;32.70;21.10;;;;;;;15.38;78.92;100553.16;108267;1280;22010;-60
2023/12/30 11:00:28;;;;;;;32.50;21.40;;;;;;;15.44;79.51;100552.27;108150;1284;22004;-61